sensor_id;sensor_type;location;lat;lon;timestamp;temperature;humidity
9847;DHT22;68671;50.084;8.794;2024-01-15T00:00:28;4.50;99.90
9847;DHT22;68671;50.084;8.794;2024-01-15T00:02:55;4.50;99.90
9847;DHT22;68671;50.084;8.794;2024-01-15T00:05:22;4.50;99.90
9847;DHT22;68671;50.084;8.794;2024-01-15T00:07:49;4.50;99.90
9847;DHT22;68671;50.084;8.794;2024-01-15T00:10:16;4.50;99.90
9847;DHT22;68671;50.084;8.794;2024-01-15T00:12:43;4.50;99.90
9847;DHT22;68671;50.084;8.794;2024-01-15T00:15:11;4.50;99.90
9847;DHT22;68671;50.084;8.794;2024-01-15T00:17:38;4.60;99.90
9847;DHT22;68671;50.084;8.794;2024-01-15T00:20:06;4.60;99.90
9847;DHT22;68671;50.084;8.794;2024-01-15T00:22:34;4.70;99.90
9847;DHT22;68671;50.084;8.794;2024-01-15T00:25:01;4.70;99.90
9847;DHT22;68671;50.084;8.794;2024-01-15T00:27:28;4.60;99.90
9847;DHT22;68671;50.084;8.794;2024-01-15T00:29:55;4.60;99.90
9847;DHT22;68671;50.084;8.794;2024-01-15T00:32:24;4.60;99.90
9847;DHT22;68671;50.084;8.794;2024-01-15T00:34:51;4.60;99.90
9847;DHT22;68671;50.084;8.794;2024-01-15T00:37:17;4.70;99.90
9847;DHT22;68671;50.084;8.794;2024-01-15T00:39:44;4.70;99.90
9847;DHT22;68671;50.084;8.794;2024-01-15T00:42:11;4.70;99.90
9847;DHT22;68671;50.084;8.794;2024-01-15T00:44:38;4.80;99.90
9847;DHT22;68671;50.084;8.794;2024-01-15T00:47:05;4.80;99.90
9847;DHT22;68671;50.084;8.794;2024-01-15T00:49:34;4.80;99.90
9847;DHT22;68671;50.084;8.794;2024-01-15T00:52:01;4.80;99.90
9847;DHT22;68671;50.084;8.794;2024-01-15T00:54:28;4.80;99.90
9847;DHT22;68671;50.084;8.794;2024-01-15T00:56:55;4.80;99.90
9847;DHT22;68671;50.084;8.794;2024-01-15T00:59:22;4.80;99.90
9847;DHT22;68671;50.084;8.794;2024-01-15T01:01:49;4.80;99.90
9847;DHT22;68671;50.084;8.794;2024-01-15T01:04:16;4.90;99.90
9847;DHT22;68671;50.084;8.794;2024-01-15T01:06:44;4.90;99.90
9847;DHT22;68671;50.084;8.794;2024-01-15T01:09:11;4.90;99.90
9847;DHT22;68671;50.084;8.794;2024-01-15T01:11:38;4.90;99.90
9847;DHT22;68671;50.084;8.794;2024-01-15T01:14:05;5.00;99.90
9847;DHT22;68671;50.084;8.794;2024-01-15T01:16:32;5.00;99.90
9847;DHT22;68671;50.084;8.794;2024-01-15T01:19:04;5.00;99.90
9847;DHT22;68671;50.084;8.794;2024-01-15T01:21:31;5.10;99.90
9847;DHT22;68671;50.084;8.794;2024-01-15T01:23:59;5.10;99.90
9847;DHT22;68671;50.084;8.794;2024-01-15T01:26:26;5.10;99.90
9847;DHT22;68671;50.084;8.794;2024-01-15T01:28:53;5.10;99.90
9847;DHT22;68671;50.084;8.794;2024-01-15T01:31:20;5.10;99.90
9847;DHT22;68671;50.084;8.794;2024-01-15T01:33:47;5.10;99.90
9847;DHT22;68671;50.084;8.794;2024-01-15T01:36:13;5.10;99.90
9847;DHT22;68671;50.084;8.794;2024-01-15T01:38:41;5.20;99.90
9847;DHT22;68671;50.084;8.794;2024-01-15T01:41:09;5.20;99.90
9847;DHT22;68671;50.084;8.794;2024-01-15T01:43:37;5.20;99.90
9847;DHT22;68671;50.084;8.794;2024-01-15T01:46:04;5.20;99.90
9847;DHT22;68671;50.084;8.794;2024-01-15T01:48:50;5.20;99.90
9847;DHT22;68671;50.084;8.794;2024-01-15T01:51:20;5.20;99.90
9847;DHT22;68671;50.084;8.794;2024-01-15T01:53:48;5.20;99.90
9847;DHT22;68671;50.084;8.794;2024-01-15T01:56:18;5.20;99.90
9847;DHT22;68671;50.084;8.794;2024-01-15T01:58:45;5.20;99.90
9847;DHT22;68671;50.084;8.794;2024-01-15T02:01:13;5.10;99.90
9847;DHT22;68671;50.084;8.794;2024-01-15T02:03:42;5.10;99.90
9847;DHT22;68671;50.084;8.794;2024-01-15T02:06:09;5.10;99.90
9847;DHT22;68671;50.084;8.794;2024-01-15T02:08:36;5.10;99.90
9847;DHT22;68671;50.084;8.794;2024-01-15T02:11:04;5.10;99.90
9847;DHT22;68671;50.084;8.794;2024-01-15T02:13:32;5.10;99.90
9847;DHT22;68671;50.084;8.794;2024-01-15T02:15:59;5.10;99.90
9847;DHT22;68671;50.084;8.794;2024-01-15T02:18:26;5.10;99.90
9847;DHT22;68671;50.084;8.794;2024-01-15T02:20:53;5.10;99.90
9847;DHT22;68671;50.084;8.794;2024-01-15T02:23:21;5.10;99.90
9847;DHT22;68671;50.084;8.794;2024-01-15T02:25:48;5.20;99.90
9847;DHT22;68671;50.084;8.794;2024-01-15T02:28:16;5.20;99.90
9847;DHT22;68671;50.084;8.794;2024-01-15T02:30:44;5.20;99.90
9847;DHT22;68671;50.084;8.794;2024-01-15T02:33:11;5.20;99.90
9847;DHT22;68671;50.084;8.794;2024-01-15T02:35:38;5.20;99.90
9847;DHT22;68671;50.084;8.794;2024-01-15T02:38:06;5.20;99.90
9847;DHT22;68671;50.084;8.794;2024-01-15T02:40:35;5.30;99.90
9847;DHT22;68671;50.084;8.794;2024-01-15T02:43:02;5.20;99.90
9847;DHT22;68671;50.084;8.794;2024-01-15T02:45:29;5.20;99.90
9847;DHT22;68671;50.084;8.794;2024-01-15T02:47:56;5.20;99.90
9847;DHT22;68671;50.084;8.794;2024-01-15T02:50:23;5.20;99.90
9847;DHT22;68671;50.084;8.794;2024-01-15T02:52:50;5.10;99.90
9847;DHT22;68671;50.084;8.794;2024-01-15T02:55:17;5.10;99.90
9847;DHT22;68671;50.084;8.794;2024-01-15T02:57:45;5.10;99.90
9847;DHT22;68671;50.084;8.794;2024-01-15T03:00:13;5.10;99.90
9847;DHT22;68671;50.084;8.794;2024-01-15T03:02:40;5.10;99.90
9847;DHT22;68671;50.084;8.794;2024-01-15T03:05:09;5.00;99.90
9847;DHT22;68671;50.084;8.794;2024-01-15T03:07:36;5.10;99.90
9847;DHT22;68671;50.084;8.794;2024-01-15T03:10:05;5.00;99.90
9847;DHT22;68671;50.084;8.794;2024-01-15T03:12:32;5.00;99.90
9847;DHT22;68671;50.084;8.794;2024-01-15T03:15:00;5.00;99.90
9847;DHT22;68671;50.084;8.794;2024-01-15T03:17:28;5.00;99.90
9847;DHT22;68671;50.084;8.794;2024-01-15T03:19:55;5.00;99.90
9847;DHT22;68671;50.084;8.794;2024-01-15T03:22:22;5.00;99.90
9847;DHT22;68671;50.084;8.794;2024-01-15T03:24:48;5.00;99.90
9847;DHT22;68671;50.084;8.794;2024-01-15T03:27:15;5.00;99.90
9847;DHT22;68671;50.084;8.794;2024-01-15T03:29:42;5.10;99.90
9847;DHT22;68671;50.084;8.794;2024-01-15T03:32:11;5.10;99.90
9847;DHT22;68671;50.084;8.794;2024-01-15T03:34:38;5.10;99.90
9847;DHT22;68671;50.084;8.794;2024-01-15T03:37:05;5.10;99.90
9847;DHT22;68671;50.084;8.794;2024-01-15T03:39:32;5.10;99.90
9847;DHT22;68671;50.084;8.794;2024-01-15T03:41:59;5.10;99.90
9847;DHT22;68671;50.084;8.794;2024-01-15T03:44:25;5.10;99.90
9847;DHT22;68671;50.084;8.794;2024-01-15T03:46:52;5.10;99.90
9847;DHT22;68671;50.084;8.794;2024-01-15T03:49:21;5.10;99.90
9847;DHT22;68671;50.084;8.794;2024-01-15T03:51:48;5.10;99.90
9847;DHT22;68671;50.084;8.794;2024-01-15T03:54:15;5.10;99.90
9847;DHT22;68671;50.084;8.794;2024-01-15T03:56:41;5.10;99.90
9847;DHT22;68671;50.084;8.794;2024-01-15T03:59:08;5.10;99.90
9847;DHT22;68671;50.084;8.794;2024-01-15T04:01:35;5.10;99.90
9847;DHT22;68671;50.084;8.794;2024-01-15T04:04:02;5.10;99.90
9847;DHT22;68671;50.084;8.794;2024-01-15T04:06:31;5.10;99.90
9847;DHT22;68671;50.084;8.794;2024-01-15T04:08:58;5.10;99.90
9847;DHT22;68671;50.084;8.794;2024-01-15T04:11:26;5.10;99.90
9847;DHT22;68671;50.084;8.794;2024-01-15T04:13:53;5.20;99.90
9847;DHT22;68671;50.084;8.794;2024-01-15T04:16:35;5.20;99.90
9847;DHT22;68671;50.084;8.794;2024-01-15T04:19:07;5.30;99.90
9847;DHT22;68671;50.084;8.794;2024-01-15T04:21:36;5.20;99.90
9847;DHT22;68671;50.084;8.794;2024-01-15T04:24:03;5.30;99.90
9847;DHT22;68671;50.084;8.794;2024-01-15T04:26:30;5.30;99.90
9847;DHT22;68671;50.084;8.794;2024-01-15T04:28:57;5.30;99.90
9847;DHT22;68671;50.084;8.794;2024-01-15T04:31:24;5.30;99.90
9847;DHT22;68671;50.084;8.794;2024-01-15T04:33:52;5.30;99.90
9847;DHT22;68671;50.084;8.794;2024-01-15T04:36:19;5.30;99.90
9847;DHT22;68671;50.084;8.794;2024-01-15T04:38:48;5.20;99.90
9847;DHT22;68671;50.084;8.794;2024-01-15T04:41:16;5.30;99.90
9847;DHT22;68671;50.084;8.794;2024-01-15T04:43:43;5.30;99.90
9847;DHT22;68671;50.084;8.794;2024-01-15T04:46:10;5.30;99.90
9847;DHT22;68671;50.084;8.794;2024-01-15T04:48:37;5.20;99.90
9847;DHT22;68671;50.084;8.794;2024-01-15T04:51:05;5.20;99.90
9847;DHT22;68671;50.084;8.794;2024-01-15T04:53:32;5.20;99.90
9847;DHT22;68671;50.084;8.794;2024-01-15T04:56:01;5.20;99.90
9847;DHT22;68671;50.084;8.794;2024-01-15T04:58:28;5.20;99.90
9847;DHT22;68671;50.084;8.794;2024-01-15T05:00:57;5.20;99.90
9847;DHT22;68671;50.084;8.794;2024-01-15T05:03:24;5.20;99.90
9847;DHT22;68671;50.084;8.794;2024-01-15T05:05:51;5.20;99.90
9847;DHT22;68671;50.084;8.794;2024-01-15T05:08:18;5.20;99.90
9847;DHT22;68671;50.084;8.794;2024-01-15T05:10:45;5.20;99.90
9847;DHT22;68671;50.084;8.794;2024-01-15T05:13:13;5.20;99.90
9847;DHT22;68671;50.084;8.794;2024-01-15T05:15:40;5.20;99.90
9847;DHT22;68671;50.084;8.794;2024-01-15T05:18:07;5.20;99.90
9847;DHT22;68671;50.084;8.794;2024-01-15T05:20:34;5.20;99.90
9847;DHT22;68671;50.084;8.794;2024-01-15T05:23:01;5.20;99.90
9847;DHT22;68671;50.084;8.794;2024-01-15T05:25:28;5.20;99.90
9847;DHT22;68671;50.084;8.794;2024-01-15T05:27:54;5.20;99.90
9847;DHT22;68671;50.084;8.794;2024-01-15T05:30:23;5.20;99.90
9847;DHT22;68671;50.084;8.794;2024-01-15T05:32:50;5.20;99.90
9847;DHT22;68671;50.084;8.794;2024-01-15T05:35:17;5.20;99.90
9847;DHT22;68671;50.084;8.794;2024-01-15T05:37:45;5.20;99.90
9847;DHT22;68671;50.084;8.794;2024-01-15T05:40:12;5.20;99.90
9847;DHT22;68671;50.084;8.794;2024-01-15T05:42:39;5.20;99.90
9847;DHT22;68671;50.084;8.794;2024-01-15T05:45:07;5.20;99.90
9847;DHT22;68671;50.084;8.794;2024-01-15T05:47:36;5.30;99.90
9847;DHT22;68671;50.084;8.794;2024-01-15T05:50:03;5.30;99.90
9847;DHT22;68671;50.084;8.794;2024-01-15T05:52:30;5.30;99.90
9847;DHT22;68671;50.084;8.794;2024-01-15T05:54:57;5.30;99.90
9847;DHT22;68671;50.084;8.794;2024-01-15T05:57:24;5.30;99.90
9847;DHT22;68671;50.084;8.794;2024-01-15T05:59:51;5.30;99.90
9847;DHT22;68671;50.084;8.794;2024-01-15T06:02:18;5.30;99.90
9847;DHT22;68671;50.084;8.794;2024-01-15T06:04:46;5.30;99.90
9847;DHT22;68671;50.084;8.794;2024-01-15T06:07:13;5.40;99.90
9847;DHT22;68671;50.084;8.794;2024-01-15T06:09:40;5.30;99.90
9847;DHT22;68671;50.084;8.794;2024-01-15T06:12:08;5.40;99.90
9847;DHT22;68671;50.084;8.794;2024-01-15T06:14:35;5.40;99.90
9847;DHT22;68671;50.084;8.794;2024-01-15T06:17:02;5.40;99.90
9847;DHT22;68671;50.084;8.794;2024-01-15T06:19:29;5.40;99.90
9847;DHT22;68671;50.084;8.794;2024-01-15T06:21:58;5.40;99.90
9847;DHT22;68671;50.084;8.794;2024-01-15T06:24:25;5.40;99.90
9847;DHT22;68671;50.084;8.794;2024-01-15T06:26:52;5.40;99.90
9847;DHT22;68671;50.084;8.794;2024-01-15T06:29:19;5.40;99.90
9847;DHT22;68671;50.084;8.794;2024-01-15T06:31:46;5.40;99.90
9847;DHT22;68671;50.084;8.794;2024-01-15T06:34:15;5.40;99.90
9847;DHT22;68671;50.084;8.794;2024-01-15T06:36:42;5.40;99.90
9847;DHT22;68671;50.084;8.794;2024-01-15T06:39:11;5.40;99.90
9847;DHT22;68671;50.084;8.794;2024-01-15T06:41:38;5.40;99.90
9847;DHT22;68671;50.084;8.794;2024-01-15T06:44:08;5.40;99.90
9847;DHT22;68671;50.084;8.794;2024-01-15T06:46:35;5.50;99.90
9847;DHT22;68671;50.084;8.794;2024-01-15T06:49:02;5.50;99.90
9847;DHT22;68671;50.084;8.794;2024-01-15T06:51:29;5.50;99.90
9847;DHT22;68671;50.084;8.794;2024-01-15T06:53:56;5.50;99.90
9847;DHT22;68671;50.084;8.794;2024-01-15T06:56:25;5.50;99.90
9847;DHT22;68671;50.084;8.794;2024-01-15T06:58:52;5.50;99.90
9847;DHT22;68671;50.084;8.794;2024-01-15T07:01:18;5.50;99.90
9847;DHT22;68671;50.084;8.794;2024-01-15T07:03:46;5.50;99.90
9847;DHT22;68671;50.084;8.794;2024-01-15T07:06:13;5.50;99.90
9847;DHT22;68671;50.084;8.794;2024-01-15T07:08:40;5.50;99.90
9847;DHT22;68671;50.084;8.794;2024-01-15T07:11:07;5.50;99.90
9847;DHT22;68671;50.084;8.794;2024-01-15T07:13:36;5.50;99.90
9847;DHT22;68671;50.084;8.794;2024-01-15T07:16:03;5.50;99.90
9847;DHT22;68671;50.084;8.794;2024-01-15T07:18:30;5.50;99.90
9847;DHT22;68671;50.084;8.794;2024-01-15T07:20:57;5.50;99.90
9847;DHT22;68671;50.084;8.794;2024-01-15T07:23:24;5.60;99.90
9847;DHT22;68671;50.084;8.794;2024-01-15T07:25:51;5.60;99.90
9847;DHT22;68671;50.084;8.794;2024-01-15T07:28:19;5.60;99.90
9847;DHT22;68671;50.084;8.794;2024-01-15T07:30:47;5.60;99.90
9847;DHT22;68671;50.084;8.794;2024-01-15T07:33:14;5.60;99.90
9847;DHT22;68671;50.084;8.794;2024-01-15T07:35:41;5.60;99.90
9847;DHT22;68671;50.084;8.794;2024-01-15T07:38:08;5.50;99.90
9847;DHT22;68671;50.084;8.794;2024-01-15T07:40:37;5.60;99.90
9847;DHT22;68671;50.084;8.794;2024-01-15T07:43:04;5.60;99.90
9847;DHT22;68671;50.084;8.794;2024-01-15T07:45:31;5.60;99.90
9847;DHT22;68671;50.084;8.794;2024-01-15T07:47:59;5.60;99.90
9847;DHT22;68671;50.084;8.794;2024-01-15T07:50:26;5.60;99.90
9847;DHT22;68671;50.084;8.794;2024-01-15T07:52:53;5.50;99.90
9847;DHT22;68671;50.084;8.794;2024-01-15T07:55:20;5.60;99.90
9847;DHT22;68671;50.084;8.794;2024-01-15T07:57:47;5.60;99.90
9847;DHT22;68671;50.084;8.794;2024-01-15T08:00:15;5.60;99.90
9847;DHT22;68671;50.084;8.794;2024-01-15T08:02:42;5.60;99.90
9847;DHT22;68671;50.084;8.794;2024-01-15T08:05:10;5.60;99.90
9847;DHT22;68671;50.084;8.794;2024-01-15T08:07:37;5.60;99.90
9847;DHT22;68671;50.084;8.794;2024-01-15T08:10:16;5.60;99.90
9847;DHT22;68671;50.084;8.794;2024-01-15T08:12:50;5.50;99.90
9847;DHT22;68671;50.084;8.794;2024-01-15T08:15:24;5.50;99.90
9847;DHT22;68671;50.084;8.794;2024-01-15T08:17:51;5.30;99.90
9847;DHT22;68671;50.084;8.794;2024-01-15T08:20:19;5.30;99.90
9847;DHT22;68671;50.084;8.794;2024-01-15T08:22:46;5.30;99.90
9847;DHT22;68671;50.084;8.794;2024-01-15T08:25:13;5.30;99.90
9847;DHT22;68671;50.084;8.794;2024-01-15T08:27:40;5.30;99.90
9847;DHT22;68671;50.084;8.794;2024-01-15T08:30:09;5.20;99.90
9847;DHT22;68671;50.084;8.794;2024-01-15T08:32:36;5.20;99.90
9847;DHT22;68671;50.084;8.794;2024-01-15T08:35:07;5.30;99.90
9847;DHT22;68671;50.084;8.794;2024-01-15T08:37:36;5.30;99.90
9847;DHT22;68671;50.084;8.794;2024-01-15T08:40:11;5.30;99.90
9847;DHT22;68671;50.084;8.794;2024-01-15T08:42:40;5.20;99.90
9847;DHT22;68671;50.084;8.794;2024-01-15T08:45:08;5.30;99.90
9847;DHT22;68671;50.084;8.794;2024-01-15T08:47:35;5.30;99.90
9847;DHT22;68671;50.084;8.794;2024-01-15T08:50:03;5.20;99.90
9847;DHT22;68671;50.084;8.794;2024-01-15T08:52:30;5.20;99.90
9847;DHT22;68671;50.084;8.794;2024-01-15T08:54:58;5.20;99.90
9847;DHT22;68671;50.084;8.794;2024-01-15T08:57:27;5.20;99.90
9847;DHT22;68671;50.084;8.794;2024-01-15T08:59:54;5.20;99.90
9847;DHT22;68671;50.084;8.794;2024-01-15T09:02:21;5.20;99.90
9847;DHT22;68671;50.084;8.794;2024-01-15T09:04:55;5.20;99.90
9847;DHT22;68671;50.084;8.794;2024-01-15T09:07:23;5.20;99.90
9847;DHT22;68671;50.084;8.794;2024-01-15T09:09:52;5.10;99.90
9847;DHT22;68671;50.084;8.794;2024-01-15T09:12:20;5.20;99.90
9847;DHT22;68671;50.084;8.794;2024-01-15T09:14:48;5.10;99.90
9847;DHT22;68671;50.084;8.794;2024-01-15T09:17:16;5.00;99.90
9847;DHT22;68671;50.084;8.794;2024-01-15T09:19:43;4.80;99.90
9847;DHT22;68671;50.084;8.794;2024-01-15T09:22:10;4.90;99.90
9847;DHT22;68671;50.084;8.794;2024-01-15T09:24:40;4.90;99.90
9847;DHT22;68671;50.084;8.794;2024-01-15T09:27:08;4.90;99.90
9847;DHT22;68671;50.084;8.794;2024-01-15T09:29:36;5.00;99.90
9847;DHT22;68671;50.084;8.794;2024-01-15T09:32:05;5.00;99.90
9847;DHT22;68671;50.084;8.794;2024-01-15T09:34:32;5.00;99.90
9847;DHT22;68671;50.084;8.794;2024-01-15T09:37:00;5.00;99.90
9847;DHT22;68671;50.084;8.794;2024-01-15T09:39:27;4.90;99.90
9847;DHT22;68671;50.084;8.794;2024-01-15T09:41:54;4.80;99.90
9847;DHT22;68671;50.084;8.794;2024-01-15T09:44:21;4.80;99.90
9847;DHT22;68671;50.084;8.794;2024-01-15T09:46:51;4.80;99.90
9847;DHT22;68671;50.084;8.794;2024-01-15T09:49:18;4.90;99.90
9847;DHT22;68671;50.084;8.794;2024-01-15T09:51:47;4.90;99.90
9847;DHT22;68671;50.084;8.794;2024-01-15T09:54:15;5.00;99.90
9847;DHT22;68671;50.084;8.794;2024-01-15T09:56:45;5.10;99.90
9847;DHT22;68671;50.084;8.794;2024-01-15T09:59:14;5.10;99.90
9847;DHT22;68671;50.084;8.794;2024-01-15T10:01:43;5.10;99.90
9847;DHT22;68671;50.084;8.794;2024-01-15T10:04:12;5.10;99.90
9847;DHT22;68671;50.084;8.794;2024-01-15T10:06:39;5.20;99.90
9847;DHT22;68671;50.084;8.794;2024-01-15T10:09:08;5.20;99.90
9847;DHT22;68671;50.084;8.794;2024-01-15T10:11:36;5.20;99.90
9847;DHT22;68671;50.084;8.794;2024-01-15T10:14:04;5.20;99.90
9847;DHT22;68671;50.084;8.794;2024-01-15T10:16:31;5.20;99.90
9847;DHT22;68671;50.084;8.794;2024-01-15T10:18:58;5.30;99.90
9847;DHT22;68671;50.084;8.794;2024-01-15T10:21:26;5.30;99.90
9847;DHT22;68671;50.084;8.794;2024-01-15T10:23:53;5.30;99.90
9847;DHT22;68671;50.084;8.794;2024-01-15T10:26:24;5.30;99.90
9847;DHT22;68671;50.084;8.794;2024-01-15T10:28:52;5.30;99.90
9847;DHT22;68671;50.084;8.794;2024-01-15T10:31:19;5.30;99.90
9847;DHT22;68671;50.084;8.794;2024-01-15T10:33:47;5.30;99.90
9847;DHT22;68671;50.084;8.794;2024-01-15T10:36:14;5.30;99.90
9847;DHT22;68671;50.084;8.794;2024-01-15T10:38:44;5.30;99.90
9847;DHT22;68671;50.084;8.794;2024-01-15T10:41:11;5.30;99.90
9847;DHT22;68671;50.084;8.794;2024-01-15T10:43:39;5.30;99.90
9847;DHT22;68671;50.084;8.794;2024-01-15T10:46:07;5.40;99.90
9847;DHT22;68671;50.084;8.794;2024-01-15T10:48:34;5.40;99.90
9847;DHT22;68671;50.084;8.794;2024-01-15T10:51:04;5.50;99.90
9847;DHT22;68671;50.084;8.794;2024-01-15T10:53:37;5.60;99.90
9847;DHT22;68671;50.084;8.794;2024-01-15T10:56:07;5.60;99.90
9847;DHT22;68671;50.084;8.794;2024-01-15T10:58:33;5.70;99.90
9847;DHT22;68671;50.084;8.794;2024-01-15T11:01:01;5.70;99.90
9847;DHT22;68671;50.084;8.794;2024-01-15T11:03:28;5.80;99.90
9847;DHT22;68671;50.084;8.794;2024-01-15T11:05:55;5.80;99.90
9847;DHT22;68671;50.084;8.794;2024-01-15T11:08:25;5.80;99.90
9847;DHT22;68671;50.084;8.794;2024-01-15T11:10:52;5.80;99.90
9847;DHT22;68671;50.084;8.794;2024-01-15T11:13:40;5.90;99.90
9847;DHT22;68671;50.084;8.794;2024-01-15T11:16:10;6.00;99.90
9847;DHT22;68671;50.084;8.794;2024-01-15T11:18:40;6.10;99.90
9847;DHT22;68671;50.084;8.794;2024-01-15T11:21:25;6.10;99.90
9847;DHT22;68671;50.084;8.794;2024-01-15T11:23:54;6.10;99.90
9847;DHT22;68671;50.084;8.794;2024-01-15T11:26:30;6.10;99.90
9847;DHT22;68671;50.084;8.794;2024-01-15T11:29:00;6.10;99.90
9847;DHT22;68671;50.084;8.794;2024-01-15T11:31:29;6.10;99.90
9847;DHT22;68671;50.084;8.794;2024-01-15T11:33:56;6.10;99.90
9847;DHT22;68671;50.084;8.794;2024-01-15T11:39:40;6.20;99.90
9847;DHT22;68671;50.084;8.794;2024-01-15T11:42:10;6.20;99.90
9847;DHT22;68671;50.084;8.794;2024-01-15T11:44:39;6.20;99.90
9847;DHT22;68671;50.084;8.794;2024-01-15T11:47:07;6.20;99.90
9847;DHT22;68671;50.084;8.794;2024-01-15T11:50:01;6.10;99.90
9847;DHT22;68671;50.084;8.794;2024-01-15T11:52:33;6.10;99.90
9847;DHT22;68671;50.084;8.794;2024-01-15T11:55:05;6.10;99.90
9847;DHT22;68671;50.084;8.794;2024-01-15T11:57:40;6.10;99.90
9847;DHT22;68671;50.084;8.794;2024-01-15T12:00:12;6.10;99.90
9847;DHT22;68671;50.084;8.794;2024-01-15T12:02:39;6.10;99.90
9847;DHT22;68671;50.084;8.794;2024-01-15T12:05:08;6.10;99.90
9847;DHT22;68671;50.084;8.794;2024-01-15T12:07:35;6.10;99.90
9847;DHT22;68671;50.084;8.794;2024-01-15T12:10:02;6.20;99.90
9847;DHT22;68671;50.084;8.794;2024-01-15T12:12:39;6.20;99.90
9847;DHT22;68671;50.084;8.794;2024-01-15T12:15:07;6.10;99.90
9847;DHT22;68671;50.084;8.794;2024-01-15T12:17:36;6.10;99.90
9847;DHT22;68671;50.084;8.794;2024-01-15T12:20:03;6.10;99.90
9847;DHT22;68671;50.084;8.794;2024-01-15T12:22:31;6.10;99.90
9847;DHT22;68671;50.084;8.794;2024-01-15T12:24:58;6.10;99.90
9847;DHT22;68671;50.084;8.794;2024-01-15T12:27:25;6.10;99.90
9847;DHT22;68671;50.084;8.794;2024-01-15T12:29:53;6.10;99.90
9847;DHT22;68671;50.084;8.794;2024-01-15T12:32:20;6.10;99.90
9847;DHT22;68671;50.084;8.794;2024-01-15T12:34:50;6.30;99.90
9847;DHT22;68671;50.084;8.794;2024-01-15T12:37:18;6.40;99.90
9847;DHT22;68671;50.084;8.794;2024-01-15T12:39:45;6.40;99.90
9847;DHT22;68671;50.084;8.794;2024-01-15T12:42:14;6.40;99.90
9847;DHT22;68671;50.084;8.794;2024-01-15T12:44:42;6.50;99.90
9847;DHT22;68671;50.084;8.794;2024-01-15T12:47:09;6.50;99.90
9847;DHT22;68671;50.084;8.794;2024-01-15T12:49:36;6.40;99.90
9847;DHT22;68671;50.084;8.794;2024-01-15T12:52:08;6.40;99.90
9847;DHT22;68671;50.084;8.794;2024-01-15T12:54:35;6.30;99.90
9847;DHT22;68671;50.084;8.794;2024-01-15T12:57:02;6.40;99.90
9847;DHT22;68671;50.084;8.794;2024-01-15T12:59:29;6.30;99.90
9847;DHT22;68671;50.084;8.794;2024-01-15T13:01:56;6.30;99.90
9847;DHT22;68671;50.084;8.794;2024-01-15T13:04:24;6.30;99.90
9847;DHT22;68671;50.084;8.794;2024-01-15T13:06:51;6.30;99.90
9847;DHT22;68671;50.084;8.794;2024-01-15T13:09:20;6.20;99.90
9847;DHT22;68671;50.084;8.794;2024-01-15T13:11:47;6.20;99.90
9847;DHT22;68671;50.084;8.794;2024-01-15T13:14:14;6.20;99.90
9847;DHT22;68671;50.084;8.794;2024-01-15T13:16:41;6.10;99.90
9847;DHT22;68671;50.084;8.794;2024-01-15T13:19:08;6.10;99.90
9847;DHT22;68671;50.084;8.794;2024-01-15T13:21:36;6.10;99.90
9847;DHT22;68671;50.084;8.794;2024-01-15T13:24:03;6.10;99.90
9847;DHT22;68671;50.084;8.794;2024-01-15T13:26:32;6.10;99.90
9847;DHT22;68671;50.084;8.794;2024-01-15T13:28:59;6.20;99.90
9847;DHT22;68671;50.084;8.794;2024-01-15T13:31:27;6.10;99.90
9847;DHT22;68671;50.084;8.794;2024-01-15T13:33:54;6.20;99.90
9847;DHT22;68671;50.084;8.794;2024-01-15T13:36:21;6.20;99.90
9847;DHT22;68671;50.084;8.794;2024-01-15T13:38:48;6.30;99.90
9847;DHT22;68671;50.084;8.794;2024-01-15T13:41:15;6.30;99.90
9847;DHT22;68671;50.084;8.794;2024-01-15T13:43:46;6.30;99.90
9847;DHT22;68671;50.084;8.794;2024-01-15T13:46:13;6.30;99.90
9847;DHT22;68671;50.084;8.794;2024-01-15T13:48:40;6.30;99.90
9847;DHT22;68671;50.084;8.794;2024-01-15T13:51:06;6.30;99.90
9847;DHT22;68671;50.084;8.794;2024-01-15T13:53:33;6.40;99.90
9847;DHT22;68671;50.084;8.794;2024-01-15T13:56:00;6.30;99.90
9847;DHT22;68671;50.084;8.794;2024-01-15T13:58:27;6.40;99.90
9847;DHT22;68671;50.084;8.794;2024-01-15T14:00:56;6.40;99.90
9847;DHT22;68671;50.084;8.794;2024-01-15T14:03:23;6.40;99.90
9847;DHT22;68671;50.084;8.794;2024-01-15T14:05:51;6.50;99.90
9847;DHT22;68671;50.084;8.794;2024-01-15T14:08:18;6.40;99.90
9847;DHT22;68671;50.084;8.794;2024-01-15T14:10:45;6.40;99.90
9847;DHT22;68671;50.084;8.794;2024-01-15T14:13:12;6.40;99.90
9847;DHT22;68671;50.084;8.794;2024-01-15T14:15:39;6.40;99.90
9847;DHT22;68671;50.084;8.794;2024-01-15T14:18:07;6.40;99.90
9847;DHT22;68671;50.084;8.794;2024-01-15T14:20:34;6.30;99.90
9847;DHT22;68671;50.084;8.794;2024-01-15T14:23:01;6.30;99.90
9847;DHT22;68671;50.084;8.794;2024-01-15T14:25:28;6.30;99.90
9847;DHT22;68671;50.084;8.794;2024-01-15T14:27:54;6.40;99.90
9847;DHT22;68671;50.084;8.794;2024-01-15T14:30:21;6.30;99.90
9847;DHT22;68671;50.084;8.794;2024-01-15T14:32:48;6.30;99.90
9847;DHT22;68671;50.084;8.794;2024-01-15T14:35:17;6.30;99.90
9847;DHT22;68671;50.084;8.794;2024-01-15T14:37:43;6.20;99.90
9847;DHT22;68671;50.084;8.794;2024-01-15T14:40:12;6.20;99.90
9847;DHT22;68671;50.084;8.794;2024-01-15T14:42:41;6.30;99.90
9847;DHT22;68671;50.084;8.794;2024-01-15T14:45:09;6.30;99.90
9847;DHT22;68671;50.084;8.794;2024-01-15T14:47:37;6.30;99.90
9847;DHT22;68671;50.084;8.794;2024-01-15T14:50:05;6.30;99.90
9847;DHT22;68671;50.084;8.794;2024-01-15T14:52:34;6.20;99.90
9847;DHT22;68671;50.084;8.794;2024-01-15T14:55:01;6.20;99.90
9847;DHT22;68671;50.084;8.794;2024-01-15T14:57:28;6.30;99.90
9847;DHT22;68671;50.084;8.794;2024-01-15T14:59:55;6.30;99.90
9847;DHT22;68671;50.084;8.794;2024-01-15T15:02:23;6.20;99.90
9847;DHT22;68671;50.084;8.794;2024-01-15T15:04:53;6.20;99.90
9847;DHT22;68671;50.084;8.794;2024-01-15T15:07:21;6.10;99.90
9847;DHT22;68671;50.084;8.794;2024-01-15T15:09:49;6.10;99.90
9847;DHT22;68671;50.084;8.794;2024-01-15T15:12:17;6.10;99.90
9847;DHT22;68671;50.084;8.794;2024-01-15T15:14:44;6.10;99.90
9847;DHT22;68671;50.084;8.794;2024-01-15T15:17:11;6.00;99.90
9847;DHT22;68671;50.084;8.794;2024-01-15T15:19:38;6.00;99.90
9847;DHT22;68671;50.084;8.794;2024-01-15T15:22:06;6.00;99.90
9847;DHT22;68671;50.084;8.794;2024-01-15T15:24:34;5.90;99.90
9847;DHT22;68671;50.084;8.794;2024-01-15T15:27:02;5.90;99.90
9847;DHT22;68671;50.084;8.794;2024-01-15T15:29:30;5.90;99.90
9847;DHT22;68671;50.084;8.794;2024-01-15T15:31:58;5.90;99.90
9847;DHT22;68671;50.084;8.794;2024-01-15T15:34:24;5.90;99.90
9847;DHT22;68671;50.084;8.794;2024-01-15T15:36:51;5.90;99.90
9847;DHT22;68671;50.084;8.794;2024-01-15T15:39:18;5.90;99.90
9847;DHT22;68671;50.084;8.794;2024-01-15T15:41:45;5.90;99.90
9847;DHT22;68671;50.084;8.794;2024-01-15T15:44:13;5.90;99.90
9847;DHT22;68671;50.084;8.794;2024-01-15T15:46:42;5.80;99.90
9847;DHT22;68671;50.084;8.794;2024-01-15T15:49:09;5.90;99.90
9847;DHT22;68671;50.084;8.794;2024-01-15T15:51:36;5.80;99.90
9847;DHT22;68671;50.084;8.794;2024-01-15T15:54:03;5.90;99.90
9847;DHT22;68671;50.084;8.794;2024-01-15T15:56:31;5.80;99.90
9847;DHT22;68671;50.084;8.794;2024-01-15T15:59:03;5.80;99.90
9847;DHT22;68671;50.084;8.794;2024-01-15T16:01:32;5.80;99.90
9847;DHT22;68671;50.084;8.794;2024-01-15T16:03:59;5.80;99.90
9847;DHT22;68671;50.084;8.794;2024-01-15T16:06:29;5.80;99.90
9847;DHT22;68671;50.084;8.794;2024-01-15T16:08:58;5.80;99.90